createdAt,value
2022-08-24T00:01:06.034Z,59.10
2022-08-24T00:03:34.130Z,59.00
2022-08-24T00:06:01.975Z,58.80
2022-08-24T00:08:28.836Z,58.70
2022-08-24T00:10:59.631Z,58.60
2022-08-24T00:13:32.481Z,58.50
2022-08-24T00:15:59.172Z,59.00
2022-08-24T00:18:28.911Z,59.20
2022-08-24T00:20:57.886Z,59.40
2022-08-24T00:23:26.732Z,59.00
2022-08-24T00:25:53.336Z,58.90
2022-08-24T00:28:19.998Z,58.80
2022-08-24T00:30:46.628Z,58.70
2022-08-24T00:33:13.188Z,58.60
2022-08-24T00:35:39.774Z,58.50
2022-08-24T00:38:06.344Z,58.30
2022-08-24T00:40:35.243Z,58.10
2022-08-24T00:43:05.317Z,57.90
2022-08-24T00:45:36.443Z,57.70
2022-08-24T00:48:05.380Z,57.80
2022-08-24T00:50:34.779Z,57.90
2022-08-24T00:53:03.450Z,58.10
2022-08-24T00:55:32.904Z,58.30
2022-08-24T00:58:04.801Z,58.10
2022-08-24T01:00:35.841Z,58.50
2022-08-24T01:03:05.180Z,58.40
2022-08-24T01:05:32.379Z,58.30
2022-08-24T01:07:59.327Z,58.40
2022-08-24T01:10:29.602Z,58.50
2022-08-24T01:13:01.423Z,58.50
2022-08-24T01:15:29.283Z,58.50
2022-08-24T01:18:15.251Z,59.20
2022-08-24T01:20:43.975Z,59.70
2022-08-24T01:23:18.151Z,59.70
2022-08-24T01:25:47.206Z,60.30
2022-08-24T01:28:15.408Z,60.80
2022-08-24T01:30:42.890Z,61.10
2022-08-24T01:33:10.325Z,61.00
2022-08-24T01:35:38.605Z,61.00
2022-08-24T01:38:08.985Z,60.80
2022-08-24T01:40:37.349Z,60.70
2022-08-24T01:43:08.161Z,60.80
2022-08-24T01:45:38.045Z,60.70
2022-08-24T01:48:04.954Z,60.70
2022-08-24T01:50:32.090Z,60.80
2022-08-24T01:53:05.569Z,60.80
2022-08-24T01:55:35.104Z,60.90
2022-08-24T01:58:01.722Z,61.60
2022-08-24T02:00:28.803Z,62.00
2022-08-24T02:03:00.187Z,62.30
2022-08-24T02:05:26.913Z,62.30
2022-08-24T02:07:55.710Z,62.40
2022-08-24T02:10:22.544Z,62.80
2022-08-24T02:13:00.776Z,64.50
2022-08-24T02:15:31.773Z,63.80
2022-08-24T02:17:58.606Z,63.90
2022-08-24T02:20:25.279Z,64.10
2022-08-24T02:22:52.482Z,64.20
2022-08-24T02:25:21.984Z,64.80
2022-08-24T02:27:48.647Z,63.60
2022-08-24T02:30:15.898Z,63.80
2022-08-24T02:32:42.515Z,64.30
2022-08-24T02:35:09.730Z,64.50
2022-08-24T02:37:36.521Z,64.50
2022-08-24T02:40:10.754Z,64.20
2022-08-24T02:42:37.610Z,64.30
2022-08-24T02:45:05.097Z,64.40
2022-08-24T02:47:37.987Z,64.20
2022-08-24T02:50:11.311Z,64.40
2022-08-24T02:52:39.423Z,65.00
2022-08-24T02:55:07.007Z,65.50
2022-08-24T02:57:33.596Z,65.90
2022-08-24T03:00:05.949Z,66.20
2022-08-24T03:02:36.185Z,66.40
2022-08-24T03:05:03.504Z,66.00
2022-08-24T03:07:30.074Z,65.70
2022-08-24T03:09:56.656Z,65.70
2022-08-24T03:12:23.244Z,65.50
2022-08-24T03:14:49.847Z,65.70
2022-08-24T03:17:16.432Z,66.10
2022-08-24T03:19:43.070Z,66.10
2022-08-24T03:22:09.764Z,66.30
2022-08-24T03:24:38.683Z,66.40
2022-08-24T03:27:05.681Z,66.20
2022-08-24T03:29:35.273Z,66.00
2022-08-24T03:32:02.531Z,65.70
2022-08-24T03:34:29.109Z,65.80
2022-08-24T03:36:55.691Z,66.00
2022-08-24T03:39:22.298Z,66.00
2022-08-24T03:41:48.901Z,66.40
2022-08-24T03:44:15.475Z,66.70
2022-08-24T03:46:45.256Z,67.10
2022-08-24T03:49:13.283Z,67.90
2022-08-24T03:51:39.965Z,68.10
2022-08-24T03:54:08.603Z,68.20
2022-08-24T03:56:37.583Z,68.10
2022-08-24T03:59:05.063Z,68.30
2022-08-24T04:01:31.837Z,68.90
2022-08-24T04:03:59.070Z,69.10
2022-08-24T04:06:26.205Z,69.20
2022-08-24T04:08:55.038Z,68.90
2022-08-24T04:11:25.640Z,68.50
2022-08-24T04:13:56.953Z,68.30
2022-08-24T04:16:27.247Z,68.20
2022-08-24T04:18:53.918Z,68.10
2022-08-24T04:21:24.795Z,68.10
2022-08-24T04:23:54.862Z,68.40
2022-08-24T04:26:35.060Z,68.80
2022-08-24T04:29:11.057Z,69.40
2022-08-24T04:31:38.096Z,69.80
2022-08-24T04:34:05.685Z,69.50
2022-08-24T04:36:32.601Z,69.70
2022-08-24T04:39:00.500Z,69.30
2022-08-24T04:41:31.535Z,69.10
2022-08-24T04:44:01.354Z,68.90
2022-08-24T04:46:30.892Z,69.10
2022-08-24T04:48:57.730Z,69.30
2022-08-24T04:51:24.338Z,69.60
2022-08-24T04:53:53.418Z,70.00
2022-08-24T04:56:24.180Z,70.50
2022-08-24T04:58:53.662Z,70.60
2022-08-24T05:01:22.002Z,70.80
2022-08-24T05:03:50.189Z,70.80
2022-08-24T05:06:17.850Z,70.70
2022-08-24T05:08:46.640Z,69.90
2022-08-24T05:11:14.040Z,69.40
2022-08-24T05:13:41.021Z,68.90
2022-08-24T05:16:08.758Z,68.30
2022-08-24T05:18:35.636Z,68.10
2022-08-24T05:21:04.743Z,67.90
2022-08-24T05:23:33.576Z,67.90
2022-08-24T05:26:14.728Z,67.80
2022-08-24T05:28:41.315Z,67.70
2022-08-24T05:31:09.432Z,67.50
2022-08-24T05:33:36.240Z,68.10
2022-08-24T05:36:03.499Z,67.30
2022-08-24T05:38:30.344Z,67.50
2022-08-24T05:40:56.920Z,67.60
2022-08-24T05:43:26.071Z,67.90
2022-08-24T05:45:52.641Z,68.10
2022-08-24T05:48:23.918Z,67.80
2022-08-24T05:50:57.642Z,68.00
2022-08-24T05:53:24.561Z,68.40
2022-08-24T05:55:54.332Z,69.30
2022-08-24T05:58:31.337Z,70.00
2022-08-24T06:01:00.727Z,70.40
2022-08-24T06:03:29.477Z,70.10
2022-08-24T06:05:56.087Z,70.20
2022-08-24T06:08:24.901Z,70.00
2022-08-24T06:10:51.613Z,69.60
2022-08-24T06:13:20.449Z,69.40
2022-08-24T06:15:59.656Z,68.70
2022-08-24T06:18:34.622Z,68.60
2022-08-24T06:21:15.098Z,69.00
2022-08-24T06:23:44.147Z,69.00
2022-08-24T06:26:30.233Z,69.00
2022-08-24T06:29:00.276Z,68.70
2022-08-24T06:31:27.643Z,68.40
2022-08-24T06:33:54.932Z,68.10
2022-08-24T06:36:22.850Z,68.40
2022-08-24T06:38:49.749Z,68.30
2022-08-24T06:41:20.535Z,68.30
2022-08-24T06:43:47.413Z,66.60
2022-08-24T06:46:18.065Z,61.40
2022-08-24T06:48:48.625Z,56.90
2022-08-24T06:51:17.258Z,54.40
2022-08-24T06:53:44.527Z,51.80
2022-08-24T06:56:13.314Z,49.70
2022-08-24T06:58:42.747Z,48.60
2022-08-24T07:01:14.255Z,48.00
2022-08-24T07:03:40.955Z,47.30
2022-08-24T07:06:08.280Z,46.80
2022-08-24T07:08:35.535Z,45.90
2022-08-24T07:11:02.651Z,43.80
2022-08-24T07:13:32.024Z,42.20
2022-08-24T07:15:58.859Z,42.40
2022-08-24T07:18:25.487Z,42.10
2022-08-24T07:20:53.566Z,41.30
2022-08-24T07:23:20.686Z,41.20
2022-08-24T07:25:54.156Z,41.00
2022-08-24T07:28:27.697Z,41.60
2022-08-24T07:30:58.284Z,42.10
2022-08-24T07:33:24.943Z,42.70
2022-08-24T07:35:51.512Z,44.10
2022-08-24T07:38:25.047Z,43.80
2022-08-24T07:43:42.850Z,44.20
2022-08-24T07:46:09.933Z,43.80
2022-08-24T07:48:36.583Z,43.50
2022-08-24T07:51:07.307Z,44.50
2022-08-24T07:53:52.641Z,44.80
2022-08-24T07:56:22.769Z,45.20
2022-08-24T07:58:49.385Z,45.30
2022-08-24T08:01:22.350Z,45.00
2022-08-24T08:03:50.378Z,45.00
2022-08-24T08:06:17.375Z,45.50
2022-08-24T08:08:46.427Z,45.70
2022-08-24T08:11:13.536Z,46.00
2022-08-24T08:16:12.006Z,46.40
2022-08-24T08:18:38.774Z,46.50
2022-08-24T08:21:05.632Z,46.90
2022-08-24T08:23:50.831Z,47.30
2022-08-24T08:26:21.203Z,47.20
2022-08-24T08:28:50.514Z,47.50
2022-08-24T08:31:17.168Z,47.50
2022-08-24T08:33:43.803Z,47.30
2022-08-24T08:36:15.049Z,47.30
2022-08-24T08:38:42.980Z,47.10
2022-08-24T08:41:10.557Z,46.60
2022-08-24T08:43:42.478Z,46.60
2022-08-24T08:46:27.685Z,45.90
2022-08-24T08:49:05.454Z,45.70
2022-08-24T08:51:50.929Z,46.20
2022-08-24T08:54:38.783Z,46.20
2022-08-24T08:57:23.356Z,45.70
2022-08-24T08:59:57.830Z,46.10
2022-08-24T09:02:46.725Z,46.00
2022-08-24T09:05:32.159Z,45.70
2022-08-24T09:07:58.756Z,46.20
2022-08-24T09:10:31.170Z,45.90
2022-08-24T09:13:03.847Z,45.20
2022-08-24T09:15:48.893Z,45.20
2022-08-24T09:18:56.206Z,44.60
2022-08-24T09:21:22.760Z,44.60
2022-08-24T09:23:55.302Z,44.70
2022-08-24T09:26:27.198Z,44.30
2022-08-24T09:28:59.913Z,44.70
2022-08-24T09:34:08.965Z,43.80
2022-08-24T09:36:38.678Z,44.00
2022-08-24T09:39:20.490Z,44.40
2022-08-24T09:41:51.413Z,44.60
2022-08-24T09:44:35.811Z,44.70
2022-08-24T09:47:05.237Z,44.40
2022-08-24T09:49:50.481Z,44.20
2022-08-24T09:52:35.871Z,44.40
2022-08-24T09:55:03.208Z,43.80
2022-08-24T09:57:50.493Z,43.90
2022-08-24T10:00:31.173Z,44.10
2022-08-24T10:03:13.668Z,44.20
2022-08-24T10:05:40.336Z,44.30
2022-08-24T10:08:12.761Z,44.40
2022-08-24T10:10:42.525Z,43.50
2022-08-24T10:13:27.164Z,43.50
2022-08-24T10:16:16.978Z,43.80
2022-08-24T10:19:01.179Z,43.90
2022-08-24T10:21:46.376Z,43.20
2022-08-24T10:24:29.155Z,43.60
2022-08-24T10:26:59.361Z,43.00
2022-08-24T10:29:25.924Z,42.60
2022-08-24T10:32:04.809Z,42.20
2022-08-24T10:34:40.595Z,41.60
2022-08-24T10:37:13.305Z,41.40
2022-08-24T10:40:09.358Z,41.30
2022-08-24T10:43:07.137Z,41.70
2022-08-24T10:46:00.690Z,42.50
2022-08-24T10:48:33.462Z,42.00
2022-08-24T10:51:15.858Z,41.40
2022-08-24T10:53:47.710Z,41.20
2022-08-24T10:56:18.421Z,41.30
2022-08-24T10:58:57.297Z,40.30
2022-08-24T11:01:28.964Z,40.50
2022-08-24T11:03:55.806Z,40.80
2022-08-24T11:06:24.311Z,40.90
2022-08-24T11:09:02.522Z,40.00
2022-08-24T11:11:34.089Z,40.50
2022-08-24T11:14:03.076Z,39.50
2022-08-24T11:16:32.003Z,40.00
2022-08-24T11:19:00.593Z,39.40
2022-08-24T11:21:33.145Z,40.00
2022-08-24T11:24:06.807Z,39.80
2022-08-24T11:26:45.497Z,39.30
2022-08-24T11:29:12.068Z,38.40
2022-08-24T11:31:40.498Z,39.40
2022-08-24T11:34:09.550Z,39.30
2022-08-24T11:36:37.880Z,38.40
2022-08-24T11:39:21.131Z,38.60
2022-08-24T11:42:08.289Z,37.60
2022-08-24T11:44:37.019Z,38.20
2022-08-24T11:47:12.151Z,38.20
2022-08-24T11:49:54.917Z,37.90
2022-08-24T11:52:40.295Z,38.20
2022-08-24T11:55:46.631Z,37.30
2022-08-24T11:58:14.132Z,37.00
2022-08-24T12:00:43.609Z,37.40
2022-08-24T12:03:30.740Z,37.50
2022-08-24T12:06:00.965Z,38.10
2022-08-24T12:08:27.532Z,38.10
2022-08-24T12:11:09.178Z,37.50
2022-08-24T12:13:37.923Z,38.10
2022-08-24T12:16:24.921Z,35.80
2022-08-24T12:18:55.251Z,36.40
2022-08-24T12:21:23.995Z,36.00
2022-08-24T12:24:12.984Z,36.10
2022-08-24T12:26:45.584Z,36.30
2022-08-24T12:29:18.071Z,36.50
2022-08-24T12:31:55.969Z,37.00
2022-08-24T12:34:26.030Z,36.00
2022-08-24T12:36:55.699Z,36.90
2022-08-24T12:39:25.858Z,37.00
2022-08-24T12:42:05.790Z,36.40
2022-08-24T12:44:37.546Z,35.40
2022-08-24T12:47:06.695Z,34.90
2022-08-24T12:49:45.908Z,35.90
2022-08-24T12:52:23.012Z,34.80
2022-08-24T12:54:52.625Z,35.40
2022-08-24T12:57:34.239Z,35.80
2022-08-24T13:00:30.261Z,35.20
2022-08-24T13:03:06.679Z,35.10
2022-08-24T13:05:49.412Z,34.50
2022-08-24T13:08:35.389Z,35.10
2022-08-24T13:11:06.000Z,34.20
2022-08-24T13:13:44.357Z,34.10
2022-08-24T13:16:11.125Z,35.10
2022-08-24T13:18:52.753Z,35.40
2022-08-24T13:21:34.986Z,34.60
2022-08-24T13:24:20.137Z,34.60
2022-08-24T13:26:49.172Z,35.00
2022-08-24T13:29:16.314Z,34.80
2022-08-24T13:31:48.699Z,34.50
2022-08-24T13:34:17.781Z,34.70
2022-08-24T13:36:52.794Z,34.60
2022-08-24T13:39:34.937Z,34.70
2022-08-24T13:42:07.450Z,35.00
2022-08-24T13:44:52.352Z,34.20
2022-08-24T13:47:22.855Z,34.30
2022-08-24T13:50:09.807Z,35.20
2022-08-24T13:52:57.640Z,34.70
2022-08-24T13:55:44.970Z,33.90
2022-08-24T13:58:30.315Z,34.10
2022-08-24T14:01:15.562Z,35.00
2022-08-24T14:04:09.094Z,34.20
2022-08-24T14:06:56.815Z,33.80
2022-08-24T14:09:40.581Z,33.60
2022-08-24T14:12:16.463Z,33.30
2022-08-24T14:14:52.641Z,33.80
2022-08-24T14:17:40.698Z,34.30
2022-08-24T14:20:10.915Z,34.10
2022-08-24T14:23:05.750Z,33.90
2022-08-24T14:25:37.660Z,33.70
2022-08-24T14:28:04.505Z,33.60
2022-08-24T14:30:31.194Z,33.60
2022-08-24T14:33:00.427Z,34.20
2022-08-24T14:35:36.348Z,34.50
2022-08-24T14:38:12.373Z,32.80
2022-08-24T14:40:47.984Z,32.90
2022-08-24T14:43:44.264Z,32.00
2022-08-24T14:46:33.622Z,33.30
2022-08-24T14:49:20.166Z,32.40
2022-08-24T14:51:49.560Z,32.70
2022-08-24T14:54:24.974Z,33.00
2022-08-24T14:56:58.430Z,33.70
2022-08-24T14:59:30.604Z,33.80
2022-08-24T15:02:17.448Z,33.40
2022-08-24T15:04:56.332Z,33.50
2022-08-24T15:07:31.171Z,32.60
2022-08-24T15:09:58.737Z,32.60
2022-08-24T15:12:44.241Z,32.50
2022-08-24T15:15:13.317Z,33.00
2022-08-24T15:17:55.750Z,33.10
2022-08-24T15:20:41.158Z,33.50
2022-08-24T15:23:11.394Z,31.70
2022-08-24T15:25:44.739Z,31.70
2022-08-24T15:28:23.928Z,31.50
2022-08-24T15:30:59.071Z,32.20
2022-08-24T15:33:27.192Z,31.80
2022-08-24T15:36:05.017Z,32.00
2022-08-24T15:38:35.355Z,32.60
2022-08-24T15:41:12.599Z,31.70
2022-08-24T15:43:44.792Z,31.30
2022-08-24T15:46:12.225Z,31.10
2022-08-24T15:48:41.928Z,30.90
2022-08-24T15:51:28.678Z,31.00
2022-08-24T15:53:57.664Z,31.30
2022-08-24T15:56:25.880Z,31.60
2022-08-24T15:58:52.619Z,31.50
2022-08-24T16:01:40.023Z,32.00
2022-08-24T16:04:09.464Z,32.10
2022-08-24T16:06:45.093Z,32.20
2022-08-24T16:09:15.984Z,32.80
2022-08-24T16:11:45.734Z,33.20
2022-08-24T16:14:17.262Z,32.10
2022-08-24T16:16:47.609Z,32.10
2022-08-24T16:19:19.551Z,31.80
2022-08-24T16:21:58.479Z,31.50
2022-08-24T16:24:30.472Z,32.40
2022-08-24T16:27:06.452Z,32.80
2022-08-24T16:29:33.034Z,31.70
2022-08-24T16:32:10.649Z,32.10
2022-08-24T16:34:49.620Z,31.90
2022-08-24T16:37:18.342Z,31.50
2022-08-24T16:39:45.156Z,31.70
2022-08-24T16:42:27.387Z,32.10
2022-08-24T16:44:54.580Z,32.20
2022-08-24T16:47:22.071Z,32.00
2022-08-24T16:49:49.144Z,31.90
2022-08-24T16:52:16.033Z,31.80
2022-08-24T16:54:45.910Z,32.10
2022-08-24T16:57:14.177Z,32.30
2022-08-24T16:59:42.132Z,32.30
2022-08-24T17:02:09.384Z,32.40
2022-08-24T17:04:39.298Z,32.60
2022-08-24T17:07:07.875Z,32.80
2022-08-24T17:09:36.471Z,33.00
2022-08-24T17:12:03.570Z,33.30
2022-08-24T17:14:32.291Z,32.60
2022-08-24T17:16:59.151Z,33.00
2022-08-24T17:19:30.681Z,33.20
2022-08-24T17:21:57.756Z,32.90
2022-08-24T17:24:25.106Z,32.70
2022-08-24T17:26:55.330Z,32.70
2022-08-24T17:29:22.401Z,33.10
2022-08-24T17:31:49.989Z,32.70
2022-08-24T17:34:17.247Z,32.80
2022-08-24T17:36:44.780Z,32.70
2022-08-24T17:39:12.288Z,32.70
2022-08-24T17:41:38.891Z,32.90
2022-08-24T17:44:08.350Z,32.90
2022-08-24T17:46:35.292Z,33.20
2022-08-24T17:49:04.112Z,32.90
2022-08-24T17:51:30.733Z,33.20
2022-08-24T17:53:59.467Z,33.10
2022-08-24T17:56:27.210Z,33.50
2022-08-24T17:59:14.977Z,33.70
2022-08-24T18:01:41.573Z,33.50
2022-08-24T18:04:08.175Z,33.70
2022-08-24T18:06:35.284Z,33.50
2022-08-24T18:09:06.817Z,33.70
2022-08-24T18:11:36.135Z,34.20
2022-08-24T18:14:02.867Z,34.00
2022-08-24T18:16:29.556Z,33.90
2022-08-24T18:18:56.745Z,34.60
2022-08-24T18:21:23.718Z,34.90
2022-08-24T18:23:52.914Z,34.50
2022-08-24T18:26:21.436Z,35.20
2022-08-24T18:28:53.019Z,35.30
2022-08-24T18:31:20.837Z,35.60
2022-08-24T18:33:47.471Z,35.10
2022-08-24T18:36:14.034Z,35.10
2022-08-24T18:38:44.159Z,35.00
2022-08-24T18:41:12.995Z,35.10
2022-08-24T18:43:40.453Z,35.70
2022-08-24T18:46:09.545Z,36.00
2022-08-24T18:48:36.376Z,36.00
2022-08-24T18:51:03.545Z,35.70
2022-08-24T18:53:35.495Z,35.90
2022-08-24T18:56:09.347Z,36.10
2022-08-24T18:58:38.972Z,36.10
2022-08-24T19:01:06.085Z,36.10
2022-08-24T19:03:33.314Z,36.20
2022-08-24T19:06:00.081Z,36.40
2022-08-24T19:08:26.713Z,36.30
2022-08-24T19:10:53.412Z,36.60
2022-08-24T19:13:20.084Z,36.90
2022-08-24T19:15:47.328Z,37.20
2022-08-24T19:18:15.993Z,37.60
2022-08-24T19:20:48.280Z,37.80
2022-08-24T19:23:29.926Z,38.00
2022-08-24T19:25:56.942Z,38.50
2022-08-24T19:28:26.361Z,38.60
2022-08-24T19:30:56.936Z,38.90
2022-08-24T19:33:28.268Z,38.40
2022-08-24T19:35:57.234Z,38.30
2022-08-24T19:38:26.128Z,38.80
2022-08-24T19:40:57.032Z,39.00
2022-08-24T19:43:27.064Z,39.20
2022-08-24T19:46:05.361Z,39.60
2022-08-24T19:48:33.176Z,39.90
2022-08-24T19:51:04.570Z,39.50
2022-08-24T19:53:32.463Z,39.70
2022-08-24T19:55:59.456Z,39.80
2022-08-24T19:58:44.918Z,40.00
2022-08-24T20:01:13.319Z,40.30
2022-08-24T20:03:40.936Z,40.60
2022-08-24T20:06:07.593Z,40.80
2022-08-24T20:08:34.213Z,40.90
2022-08-24T20:11:00.969Z,41.10
2022-08-24T20:13:27.945Z,41.40
2022-08-24T20:15:55.454Z,41.00
2022-08-24T20:18:25.215Z,40.90
2022-08-24T20:20:56.703Z,40.80
2022-08-24T20:23:23.647Z,41.10
2022-08-24T20:25:52.735Z,41.50
2022-08-24T20:28:29.308Z,41.70
2022-08-24T20:30:56.896Z,41.80
2022-08-24T20:33:27.620Z,41.80
2022-08-24T20:35:59.401Z,42.10
2022-08-24T20:38:32.026Z,42.30
2022-08-24T20:40:59.492Z,42.30
2022-08-24T20:43:26.185Z,42.50
2022-08-24T20:45:55.160Z,42.80
2022-08-24T20:48:25.572Z,42.90
2022-08-24T20:50:52.238Z,43.20
2022-08-24T20:53:18.947Z,43.00
2022-08-24T20:55:45.688Z,43.20
2022-08-24T20:58:12.971Z,43.50
2022-08-24T21:00:44.034Z,43.60
2022-08-24T21:03:10.651Z,43.50
2022-08-24T21:05:38.143Z,43.40
2022-08-24T21:08:05.440Z,43.80
2022-08-24T21:10:32.378Z,44.10
2022-08-24T21:13:00.281Z,44.10
2022-08-24T21:15:29.159Z,44.10
2022-08-24T21:17:58.140Z,44.10
2022-08-24T21:20:25.614Z,44.30
2022-08-24T21:22:52.186Z,44.20
2022-08-24T21:25:18.838Z,44.40
2022-08-24T21:27:46.531Z,44.60
2022-08-24T21:30:15.095Z,44.70
2022-08-24T21:33:00.566Z,44.80
2022-08-24T21:35:27.340Z,45.00
2022-08-24T21:37:54.010Z,45.00
2022-08-24T21:40:23.351Z,45.40
2022-08-24T21:42:52.289Z,45.50
2022-08-24T21:45:21.314Z,45.70
2022-08-24T21:47:48.066Z,45.60
2022-08-24T21:50:16.203Z,45.50
2022-08-24T21:52:43.062Z,45.50
2022-08-24T21:55:14.683Z,45.60
2022-08-24T21:57:41.759Z,45.40
2022-08-24T22:00:13.245Z,45.50
2022-08-24T22:02:40.018Z,45.70
2022-08-24T22:05:06.755Z,45.60
2022-08-24T22:07:33.459Z,45.30
2022-08-24T22:10:02.665Z,45.50
2022-08-24T22:12:31.505Z,45.40
2022-08-24T22:14:58.103Z,45.40
2022-08-24T22:17:24.877Z,45.60
2022-08-24T22:19:53.851Z,45.60
2022-08-24T22:22:20.453Z,45.40
2022-08-24T22:24:49.290Z,45.50
2022-08-24T22:27:18.407Z,45.50
2022-08-24T22:29:47.505Z,45.70
2022-08-24T22:32:17.263Z,45.90
2022-08-24T22:34:45.981Z,46.10
2022-08-24T22:37:12.565Z,46.10
2022-08-24T22:39:41.536Z,46.40
2022-08-24T22:42:08.179Z,46.60
2022-08-24T22:44:34.898Z,47.00
2022-08-24T22:47:02.215Z,47.20
2022-08-24T22:49:30.037Z,47.30
2022-08-24T22:51:59.444Z,47.80
2022-08-24T22:54:30.785Z,47.70
2022-08-24T22:56:57.441Z,47.80
2022-08-24T22:59:25.156Z,48.20
2022-08-24T23:01:52.895Z,48.30
2022-08-24T23:04:24.439Z,48.80
2022-08-24T23:06:51.474Z,48.90
2022-08-24T23:09:18.375Z,48.80
2022-08-24T23:11:47.650Z,48.90
2022-08-24T23:14:14.741Z,48.60
2022-08-24T23:16:44.822Z,48.40
2022-08-24T23:19:30.232Z,48.40
2022-08-24T23:21:58.978Z,48.50
2022-08-24T23:24:27.766Z,48.70
2022-08-24T23:26:54.419Z,48.90
2022-08-24T23:29:21.435Z,49.10
2022-08-24T23:31:48.764Z,49.20
2022-08-24T23:34:15.510Z,49.40
2022-08-24T23:36:43.063Z,49.60
2022-08-24T23:39:10.685Z,49.80
2022-08-24T23:41:38.557Z,49.90
2022-08-24T23:44:07.069Z,49.90
2022-08-24T23:46:33.742Z,50.00
2022-08-24T23:49:03.733Z,50.10
2022-08-24T23:51:30.867Z,50.10
2022-08-24T23:53:57.909Z,50.50
2022-08-24T23:56:31.819Z,50.50
2022-08-24T23:58:59.833Z,50.60
